SVPL1: Red River at Shreveport Site 2

                                SHEF ID:       SVPL1     Red River at Shreveport Site 2
STATION TYPE:

PRECIP STAGE RIV-FLOW VOLTAGE
in ft cfs volt
Ccp-Rev Ccp-Rev Ccp-Rev Ccp-Rev
(America/Chicago)
07/10 00:00 0.00 15.04 16320 12.84
07/10 01:00 0.00 15.09 16720 12.83
07/10 02:00 0.00 15.14 17120 12.83
07/10 03:00 0.00 15.11 16880 12.82
07/10 04:00 0.00 15.01 16080 12.81
07/10 05:00 0.00 14.98 15760 12.81
07/10 06:00 0.00 14.95 15400 12.80
07/10 07:00 0.00 14.84 14080 13.04
07/10 08:00 0.00 14.85 14200 13.43
07/10 09:00 0.00 14.88 14560 13.08
07/10 10:00 0.00 14.86 14320 13.06
07/10 11:00 0.00 14.89 14680 13.08
07/10 12:00 0.00 14.85 14200 13.07
07/10 13:00 0.00 14.86 14320 13.06
07/10 14:00 0.00 14.89 14680 13.07
07/10 15:00 0.00 14.92 15040 13.09
07/10 16:00 0.00 14.95 15400 13.06
07/10 17:00 0.00 14.93 15160 13.07
07/10 18:00 0.00 14.93 15160 13.07
07/10 19:00 0.00 14.92 15040 12.93
07/10 20:00 0.00 14.81 13720 12.89
07/10 21:00 0.00 14.82 13840 12.88
07/10 22:00 0.00 14.85 14200 12.86
07/10 23:00 0.00 14.82 13840 12.88
Data processed at Sat 11Jul2026 04:24 GMT

NOTICE: If you are parsing this page

Please convert to using our Data API. Starting early 2026 we will be migrating to: https://water.usace.army.mil with modern pages rendered in JavaScript. When this migration completes you will no longer be able to scrape this page! CWMSDataAPI (CDA)

Timeseries IDs (TSIDs)

TSIDs used from left to right in the data table
SHRE.Precip-Inc.Total.1Hour.1Hour.Ccp-Rev
SHRE.Stage.Inst.1Hour.0.Ccp-Rev
SHRE.Flow.Inst.1Hour.0.Ccp-Rev
SHRE.Volt-Battery.Inst.1Hour.0.Ccp-Rev

                            

All information presented herein is the property of the government of the United States of America and may be revised or deleted at any time without prior notice. Dissemination of this information without the expressed written consent of the Public Affairs Office, Tulsa District U.S. Army Corps of Engineers is strictly prohibited. These data are gathered electronically and, as presented, have NOT undergone any form of quality control. These data are NOT guaranteed to be valid or correct.